Time;durP1;ratioP1;P1;durP2;ratioP2;P2;SDS_P1;SDS_P2;PMS_P1;PMS_P2;Temp;Humidity;BMP_temperature;BMP_pressure;BME280_temperature;BME280_humidity;BME280_pressure;Samples;Min_cycle;Max_cycle;Signal;HPM_P1;HPM_P2
2022/01/28 00:01:02;;;;;;;24.30;3.33;;;;;;;6.20;47.52;100667.91;5074715;28;20076;-70
2022/01/28 00:03:34;;;;;;;26.02;2.90;;;;;;;6.04;47.74;100656.03;5072946;28;20048;-70
2022/01/28 00:06:01;;;;;;;22.38;3.05;;;;;;;6.14;47.91;100652.44;5054543;28;20465;-70
2022/01/28 00:08:28;;;;;;;21.17;3.50;;;;;;;6.39;47.24;100651.22;5037165;28;20099;-70
2022/01/28 00:10:55;;;;;;;22.20;3.13;;;;;;;6.58;46.42;100663.75;5055377;28;20045;-70
2022/01/28 00:13:35;;;;;;;27.02;3.35;;;;;;;6.61;46.75;100660.81;5056114;28;20073;-70
2022/01/28 00:16:32;;;;;;;32.45;4.05;;;;;;;6.76;46.33;100671.91;5055694;28;20083;-70
2022/01/28 00:19:22;;;;;;;26.90;3.25;;;;;;;6.32;47.26;100690.03;5056020;28;20060;-70
2022/01/28 00:38:31;;;;;;;23.02;2.95;;;;;;;6.38;46.93;100677.97;5051852;28;20061;-70
2022/01/28 00:40:59;;;;;;;21.85;3.08;;;;;;;5.98;48.01;100668.09;5052163;28;20076;-70
2022/01/28 00:43:25;;;;;;;28.38;3.50;;;;;;;6.28;47.43;100685.91;5052612;28;20128;-70
2022/01/28 00:45:52;;;;;;;21.95;3.17;;;;;;;6.05;47.83;100677.25;5052249;28;20060;-70
2022/01/28 00:48:19;;;;;;;26.67;4.32;;;;;;;5.85;48.34;100678.09;5064044;28;20094;-70
2022/01/28 00:50:45;;;;;;;29.33;3.60;;;;;;;6.26;47.45;100687.03;5056462;28;20044;-69
2022/01/28 00:53:12;;;;;;;25.13;3.95;;;;;;;5.70;48.80;100667.78;5071334;28;20393;-70
2022/01/28 00:55:39;;;;;;;26.02;3.45;;;;;;;6.24;47.62;100695.13;5070082;28;20067;-70
2022/01/28 00:58:05;;;;;;;29.00;3.15;;;;;;;6.18;47.56;100707.16;5070830;28;20079;-70
2022/01/28 01:00:32;;;;;;;20.83;3.45;;;;;;;6.55;47.11;100703.16;5053901;28;20049;-69
2022/01/28 01:02:58;;;;;;;31.00;3.70;;;;;;;6.16;47.46;100698.47;5054438;28;20068;-70
2022/01/28 01:05:25;;;;;;;31.45;4.70;;;;;;;6.47;47.05;100711.81;5052074;28;20045;-70
2022/01/28 01:07:52;;;;;;;24.10;3.58;;;;;;;6.07;47.86;100709.88;5051918;28;20136;-71
2022/01/28 01:10:18;;;;;;;23.60;4.00;;;;;;;6.14;47.97;100715.53;5052376;28;20044;-71
2022/01/28 01:12:46;;;;;;;33.80;4.88;;;;;;;5.80;48.38;100722.88;5051950;28;20132;-70
2022/01/28 01:15:18;;;;;;;22.25;3.42;;;;;;;6.20;47.56;100726.50;5051848;28;20046;-70
2022/01/28 01:18:01;;;;;;;;;;;;;;;6.35;47.31;100744.84;5052180;28;20055;-70
2022/01/28 01:23:07;;;;;;;24.23;4.00;;;;;;;6.14;48.19;100740.34;5051258;28;20458;-69
2022/01/28 01:25:44;;;;;;;25.98;3.42;;;;;;;6.68;46.45;100755.25;5051184;28;20083;-70
2022/01/28 01:28:12;;;;;;;23.52;4.22;;;;;;;6.40;47.42;100748.81;5051595;28;20044;-70
2022/01/28 01:30:41;;;;;;;25.60;4.40;;;;;;;6.13;48.45;100762.63;5051614;28;20092;-70
2022/01/28 01:33:09;;;;;;;30.02;4.13;;;;;;;6.16;47.80;100770.38;5051899;28;20041;-70
2022/01/28 01:35:35;;;;;;;27.70;4.10;;;;;;;6.42;47.34;100762.84;5051599;28;20069;-70
2022/01/28 01:38:03;;;;;;;27.88;4.70;;;;;;;6.31;47.04;100776.25;5052032;28;20052;-70
2022/01/28 01:40:32;;;;;;;28.10;3.53;;;;;;;5.97;47.70;100775.56;5051961;28;20128;-70
2022/01/28 01:45:52;;;;;;;28.75;3.90;;;;;;;5.96;47.88;100793.34;5054863;28;20076;-70
2022/01/28 01:53:53;;;;;;;25.65;3.65;;;;;;;5.99;48.32;100781.63;5051877;28;20051;-70
2022/01/28 01:56:20;;;;;;;25.27;4.28;;;;;;;6.12;48.24;100803.59;5050878;28;20094;-70
2022/01/28 01:58:47;;;;;;;28.30;3.58;;;;;;;6.24;48.08;100788.38;5051749;28;20120;-70
2022/01/28 02:01:14;;;;;;;29.98;3.53;;;;;;;5.89;48.79;100804.66;5051931;28;20501;-70
2022/01/28 02:03:40;;;;;;;37.33;3.63;;;;;;;6.22;48.22;100814.31;5052122;28;20071;-70
2022/01/28 02:10:08;;;;;;;30.95;3.72;;;;;;;6.05;47.70;100817.56;5053711;28;20110;-71
2022/01/28 02:13:04;;;;;;;29.42;3.38;;;;;;;6.36;46.84;100821.16;5053447;28;20114;-71
2022/01/28 02:15:30;;;;;;;26.60;4.07;;;;;;;6.37;46.99;100828.19;5044658;28;20454;-71
2022/01/28 02:18:00;;;;;;;23.27;5.18;;;;;;;6.05;47.54;100822.88;5070201;28;20124;-70
2022/01/28 02:20:34;;;;;;;33.95;3.75;;;;;;;6.60;46.12;100839.53;5063120;28;20071;-70
2022/01/28 02:23:01;;;;;;;27.20;3.58;;;;;;;6.27;47.09;100841.44;5053834;28;20123;-70
2022/01/28 02:25:30;;;;;;;22.67;3.65;;;;;;;6.30;46.42;100829.69;5069948;28;20075;-70
2022/01/28 02:28:04;;;;;;;33.33;4.05;;;;;;;6.23;46.72;100846.13;5061088;28;20076;-70
2022/01/28 02:30:31;;;;;;;28.48;4.03;;;;;;;5.92;47.75;100852.34;5054708;28;20466;-70
2022/01/28 02:33:09;;;;;;;23.75;3.25;;;;;;;6.49;46.77;100853.75;5048017;28;20060;-70
2022/01/28 02:35:36;;;;;;;18.55;3.42;;;;;;;6.03;47.92;100862.09;5053101;28;20092;-70
2022/01/28 02:38:03;;;;;;;31.27;4.05;;;;;;;6.32;47.14;100859.69;5065804;28;20060;-70
2022/01/28 02:40:30;;;;;;;26.23;3.42;;;;;;;6.31;47.39;100866.00;5057777;28;20098;-70
2022/01/28 02:46:11;;;;;;;22.40;3.53;;;;;;;6.40;47.28;100870.56;4991213;28;20133;-70
2022/01/28 02:48:39;;;;;;;29.02;3.83;;;;;;;6.10;48.58;100880.09;4991961;28;20054;-70
2022/01/28 02:53:55;;;;;;;28.50;3.83;;;;;;;6.10;47.76;100880.09;4992349;28;20420;-70
2022/01/28 02:57:08;;;;;;;34.60;4.70;;;;;;;6.04;48.44;100874.44;4993248;28;20042;-70
2022/01/28 02:59:10;;;;;;;23.35;3.30;;;;;;;6.56;47.03;100892.25;4992752;28;20053;-70
2022/01/28 03:01:37;;;;;;;32.50;4.05;;;;;;;6.36;47.26;100890.44;4991352;28;20188;-70
2022/01/28 03:04:05;;;;;;;29.77;4.32;;;;;;;6.03;48.15;100894.91;4988267;28;20133;-70
2022/01/28 03:06:32;;;;;;;27.55;4.13;;;;;;;6.12;47.59;100902.13;4993405;28;20509;-70
2022/01/28 03:09:04;;;;;;;31.33;3.58;;;;;;;6.60;46.92;100920.38;4993468;28;20082;-70
2022/01/28 03:14:35;;;;;;;19.80;3.95;;;;;;;6.06;48.06;100910.63;4991095;28;20062;-70
2022/01/28 03:17:12;;;;;;;27.88;3.92;;;;;;;6.21;48.01;100911.16;5039441;28;20349;-69
2022/01/28 03:19:46;;;;;;;29.58;4.22;;;;;;;6.29;47.46;100911.44;5071990;28;20083;-70
2022/01/28 03:22:13;;;;;;;34.15;3.97;;;;;;;5.75;48.69;100913.13;5054925;28;20068;-69
2022/01/28 03:24:41;;;;;;;30.02;3.85;;;;;;;5.69;48.61;100929.59;5072758;28;20527;-70
2022/01/28 03:27:13;;;;;;;28.63;4.50;;;;;;;6.22;47.32;100927.03;5072517;28;20124;-70
2022/01/28 03:29:40;;;;;;;28.10;3.90;;;;;;;6.68;46.54;100925.88;5057956;28;20167;-69
2022/01/28 03:32:07;;;;;;;24.85;4.15;;;;;;;6.22;47.30;100935.03;5044681;28;20064;-70
2022/01/28 03:34:33;;;;;;;26.63;3.50;;;;;;;6.36;46.78;100943.75;5061290;28;20101;-70
2022/01/28 03:37:00;;;;;;;34.20;4.35;;;;;;;6.83;45.80;100953.06;5055698;28;20558;-70
2022/01/28 03:39:26;;;;;;;29.52;4.35;;;;;;;6.72;46.08;100947.78;5053776;28;20064;-70
2022/01/28 03:41:53;;;;;;;26.83;3.65;;;;;;;6.28;46.81;100956.84;5066948;28;20079;-70
2022/01/28 03:44:19;;;;;;;27.77;4.78;;;;;;;6.21;47.13;100967.97;5055270;28;20136;-70
2022/01/28 03:46:46;;;;;;;23.80;4.68;;;;;;;6.34;45.89;100964.31;5066418;28;20481;-70
2022/01/28 03:49:12;;;;;;;28.80;4.75;;;;;;;5.91;47.21;100959.81;5054995;28;20122;-70
2022/01/28 03:51:39;;;;;;;19.48;3.38;;;;;;;6.15;46.69;100970.31;5054285;28;20076;-70
2022/01/28 03:54:05;;;;;;;25.75;4.22;;;;;;;6.37;46.29;100966.75;5072847;28;20536;-69
2022/01/28 03:56:32;;;;;;;22.83;3.85;;;;;;;5.77;47.21;100977.75;5072843;28;20512;-70
2022/01/28 03:58:59;;;;;;;30.42;3.60;;;;;;;5.99;46.58;100968.88;5069374;28;20148;-70
2022/01/28 04:01:31;;;;;;;27.90;3.45;;;;;;;6.03;46.05;100985.44;5061892;28;20081;-70
2022/01/28 04:04:42;;;;;;;23.45;4.05;;;;;;;6.75;45.07;100987.53;5053649;28;20404;-69
2022/01/28 04:11:27;;;;;;;24.88;4.05;;;;;;;6.15;45.86;100992.47;5051174;28;20053;-70
2022/01/28 04:12:20;;;;;;;24.70;4.40;;;;;;;6.27;45.33;101003.09;5063193;28;20053;-70
2022/01/28 04:15:07;;;;;;;31.02;4.43;;;;;;;6.07;45.73;101007.34;5072544;28;20068;-70
2022/01/28 04:17:34;;;;;;;24.42;5.25;;;;;;;6.27;45.47;101013.75;5058193;28;20099;-70
2022/01/28 04:20:00;;;;;;;30.83;4.55;;;;;;;5.89;45.79;101009.69;5052079;28;20064;-70
2022/01/28 04:22:27;;;;;;;33.25;4.45;;;;;;;6.19;45.12;101017.88;5051894;28;20071;-70
2022/01/28 04:24:54;;;;;;;26.42;4.03;;;;;;;6.56;44.32;101024.69;5051633;28;20482;-70
2022/01/28 04:27:20;;;;;;;27.08;4.88;;;;;;;6.53;44.19;101038.25;5058508;28;20041;-70
2022/01/28 04:29:47;;;;;;;33.25;5.25;;;;;;;6.34;44.92;101041.59;5068238;28;20132;-70
2022/01/28 04:32:13;;;;;;;28.23;4.45;;;;;;;6.09;45.38;101034.72;5052116;28;20477;-70
2022/01/28 04:34:41;;;;;;;33.28;4.68;;;;;;;6.23;44.93;101043.28;5056720;28;20085;-70
2022/01/28 04:40:11;;;;;;;30.85;4.30;;;;;;;6.78;44.06;101042.44;5026858;28;20079;-71
2022/01/28 04:50:55;;;;;;;31.92;5.05;;;;;;;6.24;45.13;101065.44;5069685;28;20049;-70
2022/01/28 04:56:07;;;;;;;35.97;5.05;;;;;;;6.02;45.82;101066.31;5047319;28;20068;-70
2022/01/28 04:58:58;;;;;;;28.92;4.57;;;;;;;5.92;45.87;101070.69;5064192;28;20097;-70
2022/01/28 05:04:49;;;;;;;19.92;3.75;;;;;;;5.98;45.54;101081.69;5037347;28;20079;-70
2022/01/28 05:10:26;;;;;;;23.40;3.80;;;;;;;5.90;45.97;101088.59;5065903;28;20103;-71
2022/01/28 05:13:16;;;;;;;26.63;3.90;;;;;;;6.46;45.30;101092.09;5059106;28;20132;-70
2022/01/28 05:24:13;;;;;;;31.67;4.32;;;;;;;6.08;45.81;101118.25;5050977;28;20060;-71
2022/01/28 05:26:52;;;;;;;27.42;4.38;;;;;;;6.28;45.50;101132.69;5050741;28;20045;-71
2022/01/28 05:29:18;;;;;;;34.40;4.75;;;;;;;6.47;45.38;101132.91;5051087;28;20442;-71
2022/01/28 05:31:46;;;;;;;32.80;4.43;;;;;;;6.24;45.66;101140.03;5051381;28;20074;-71
2022/01/28 05:34:14;;;;;;;33.40;3.97;;;;;;;6.66;44.65;101143.78;5054080;28;20436;-71
2022/01/28 05:36:41;;;;;;;27.27;4.32;;;;;;;6.83;44.26;101146.91;5057182;28;20045;-71
2022/01/28 05:39:07;;;;;;;25.35;3.92;;;;;;;6.34;45.30;101149.03;5073454;28;20119;-69
2022/01/28 05:41:34;;;;;;;35.58;5.60;;;;;;;6.52;45.29;101151.19;5070038;28;20116;-70
2022/01/28 05:44:02;;;;;;;40.00;5.20;;;;;;;6.17;45.80;101157.47;5072166;28;20400;-71
2022/01/28 05:46:29;;;;;;;33.63;4.40;;;;;;;6.90;44.53;101169.41;5055547;28;20049;-70
2022/01/28 05:48:57;;;;;;;31.25;4.50;;;;;;;6.46;45.10;101172.06;5054558;28;20051;-70
2022/01/28 05:51:24;;;;;;;26.58;5.13;;;;;;;6.83;44.64;101178.91;5065023;28;20143;-70
2022/01/28 05:53:53;;;;;;;26.45;3.63;;;;;;;6.44;45.17;101173.13;5075666;28;20075;-70
2022/01/28 05:56:20;;;;;;;25.40;4.20;;;;;;;6.12;46.25;101171.19;5075474;28;20064;-70
2022/01/28 05:58:46;;;;;;;34.50;5.30;;;;;;;6.49;45.44;101186.94;5060110;28;20045;-70
2022/01/28 06:01:13;;;;;;;28.95;3.92;;;;;;;6.16;45.84;101196.59;5054686;28;20132;-70
2022/01/28 06:03:40;;;;;;;28.63;4.25;;;;;;;6.32;46.19;101198.09;5053949;28;20049;-70
2022/01/28 06:06:08;;;;;;;32.30;4.28;;;;;;;6.81;45.34;101210.19;5053095;28;20136;-71
2022/01/28 06:08:35;;;;;;;29.85;4.00;;;;;;;6.43;45.26;101208.78;5052937;28;20045;-70
2022/01/28 06:11:01;;;;;;;29.10;3.85;;;;;;;6.89;44.60;101215.75;5055391;28;20041;-70
2022/01/28 06:13:28;;;;;;;31.48;5.55;;;;;;;6.36;45.91;101223.56;5053440;28;20138;-70
2022/01/28 06:15:56;;;;;;;28.17;4.53;;;;;;;6.33;45.93;101245.94;5064315;28;20520;-69
2022/01/28 06:18:23;;;;;;;26.35;4.15;;;;;;;6.82;44.82;101255.38;5056376;28;20049;-70
2022/01/28 06:20:50;;;;;;;25.77;4.25;;;;;;;6.37;45.91;101252.72;5073144;28;20065;-70
2022/01/28 06:23:16;;;;;;;42.42;5.05;;;;;;;6.50;45.50;101255.28;5066543;28;20072;-70
2022/01/28 06:25:44;;;;;;;23.98;3.55;;;;;;;6.63;45.39;101252.47;5037626;28;20068;-69
2022/01/28 06:28:10;;;;;;;21.13;3.92;;;;;;;6.51;45.52;101256.97;5071392;28;20087;-68
2022/01/28 06:30:37;;;;;;;30.35;4.93;;;;;;;6.83;44.69;101277.56;5054094;28;20126;-70
2022/01/28 06:33:03;;;;;;;30.83;4.40;;;;;;;6.68;44.65;101280.50;5057880;28;20515;-71
2022/01/28 06:35:30;;;;;;;40.42;4.82;;;;;;;6.60;44.90;101284.72;5052432;28;20091;-71
2022/01/28 06:37:56;;;;;;;31.83;4.57;;;;;;;6.63;44.83;101288.03;5068187;28;20068;-71
2022/01/28 06:40:23;;;;;;;25.73;4.93;;;;;;;6.60;44.88;101288.25;5072930;28;20135;-71
2022/01/28 06:42:51;;;;;;;41.38;4.97;;;;;;;6.29;45.08;101299.56;5072799;28;20464;-71
2022/01/28 06:45:17;;;;;;;36.08;4.47;;;;;;;6.34;44.86;101308.09;5058326;28;20128;-70
2022/01/28 06:47:43;;;;;;;35.00;4.13;;;;;;;6.65;43.99;101318.06;5067294;28;20537;-69
2022/01/28 06:50:10;;;;;;;38.85;5.75;;;;;;;6.45;44.49;101314.25;5052238;28;20064;-70
2022/01/28 06:52:38;;;;;;;38.42;5.18;;;;;;;6.61;44.26;101313.94;5062805;28;20130;-70
2022/01/28 06:55:05;;;;;;;24.75;4.38;;;;;;;6.70;44.03;101318.56;5073326;28;20095;-69
2022/01/28 06:57:32;;;;;;;25.48;4.88;;;;;;;6.94;43.15;101345.13;5073563;28;20045;-72
2022/01/28 06:59:59;;;;;;;30.13;4.57;;;;;;;6.90;43.09;101343.63;5067674;28;20057;-72
2022/01/28 07:02:26;;;;;;;32.57;4.63;;;;;;;6.38;44.10;101346.84;5024370;28;1020834;-72
2022/01/28 07:04:53;;;;;;;30.20;4.60;;;;;;;6.86;43.23;101354.69;5059221;28;20045;-72
2022/01/28 07:07:22;;;;;;;28.17;5.25;;;;;;;7.04;42.87;101355.03;5060250;28;20139;-72
2022/01/28 07:09:49;;;;;;;35.08;6.13;;;;;;;7.53;41.93;101361.75;5058688;28;20550;-72
2022/01/28 07:12:16;;;;;;;31.00;4.82;;;;;;;6.98;42.42;101361.72;5071177;28;20071;-72
2022/01/28 07:14:42;;;;;;;41.03;4.47;;;;;;;6.71;43.10;101364.72;5071146;28;20135;-72
2022/01/28 07:17:09;;;;;;;29.73;4.50;;;;;;;6.93;42.45;101372.75;5053564;28;20128;-72
2022/01/28 07:19:36;;;;;;;29.38;4.90;;;;;;;6.77;43.15;101376.72;5053998;28;20127;-72
2022/01/28 07:22:03;;;;;;;30.05;4.60;;;;;;;6.82;42.99;101382.56;5053315;28;20473;-72
2022/01/28 07:24:29;;;;;;;39.88;5.05;;;;;;;6.76;42.67;101388.38;5065672;28;20102;-72
2022/01/28 07:26:56;;;;;;;41.45;5.82;;;;;;;6.75;42.91;101392.84;5072521;28;20080;-72
2022/01/28 07:29:27;;;;;;;36.38;5.20;;;;;;;7.38;42.03;101406.56;5054565;28;20044;-72
2022/01/28 07:31:55;;;;;;;31.05;5.13;;;;;;;7.18;41.90;101409.00;5053371;28;20049;-72
2022/01/28 07:34:22;;;;;;;27.50;4.22;;;;;;;6.55;42.99;101410.38;5046964;28;20135;-72
2022/01/28 07:36:48;;;;;;;30.02;3.95;;;;;;;6.60;43.28;101418.00;5040678;28;20634;-72
2022/01/28 07:39:15;;;;;;;37.38;5.25;;;;;;;6.63;42.76;101426.66;5072830;28;20075;-72
2022/01/28 07:41:42;;;;;;;31.63;4.47;;;;;;;6.83;42.22;101437.59;5062234;28;20516;-72
2022/01/28 07:44:08;;;;;;;35.75;5.07;;;;;;;6.55;42.87;101453.03;5053829;28;20056;-72
2022/01/28 07:46:35;;;;;;;33.97;4.97;;;;;;;6.80;42.67;101448.50;5053082;28;20524;-72
2022/01/28 07:49:03;;;;;;;33.72;5.45;;;;;;;6.21;43.78;101452.00;5054510;28;20076;-72
2022/01/28 07:51:29;;;;;;;41.10;5.38;;;;;;;6.15;43.86;101457.81;5073628;28;20536;-71
2022/01/28 07:53:56;;;;;;;36.42;5.07;;;;;;;6.28;43.68;101465.75;5074203;28;20048;-71
2022/01/28 07:56:24;;;;;;;33.35;4.63;;;;;;;6.63;42.88;101469.31;5073188;28;20045;-73
2022/01/28 07:58:50;;;;;;;43.80;5.65;;;;;;;6.45;43.39;101482.19;5074139;28;20068;-73
2022/01/28 08:01:17;;;;;;;34.72;4.55;;;;;;;6.38;42.74;101480.09;5072991;28;20044;-74
2022/01/28 08:03:44;;;;;;;52.13;5.82;;;;;;;6.37;43.40;101479.25;5072863;28;20048;-72
2022/01/28 08:06:10;;;;;;;29.75;4.93;;;;;;;6.48;43.13;101489.13;5070840;28;20071;-72
2022/01/28 08:08:37;;;;;;;44.78;5.85;;;;;;;6.06;43.81;101491.28;5052488;28;20110;-72
2022/01/28 08:11:04;;;;;;;33.50;4.97;;;;;;;6.52;42.93;101503.91;5052194;28;20096;-73
2022/01/28 08:13:30;;;;;;;34.28;6.45;;;;;;;6.03;43.96;101519.97;5051903;28;20099;-73
2022/01/28 08:15:57;;;;;;;52.10;6.07;;;;;;;6.25;43.54;101517.44;5051768;28;20061;-73
2022/01/28 08:18:23;;;;;;;40.70;7.82;;;;;;;6.51;42.48;101526.22;5041244;28;20051;-73
2022/01/28 08:20:50;;;;;;;38.15;5.30;;;;;;;6.44;42.78;101524.97;5051282;28;20049;-73
2022/01/28 08:23:16;;;;;;;53.15;5.75;;;;;;;6.28;43.43;101535.03;5051886;28;20060;-73
2022/01/28 08:25:43;;;;;;;39.30;5.07;;;;;;;6.24;42.84;101523.72;5034258;28;20069;-73
2022/01/28 08:28:10;;;;;;;34.90;6.00;;;;;;;6.16;43.28;101536.78;5063752;28;20078;-73
2022/01/28 08:30:39;;;;;;;24.80;4.68;;;;;;;6.44;43.04;101547.13;5055322;28;20099;-73
2022/01/28 08:33:06;;;;;;;29.88;4.65;;;;;;;6.38;42.98;101539.59;5070286;28;20127;-72
2022/01/28 08:35:37;;;;;;;42.45;5.65;;;;;;;6.46;42.95;101557.69;5061964;28;20139;-73
2022/01/28 08:38:14;;;;;;;32.13;6.38;;;;;;;6.92;41.76;101559.59;5064102;28;20063;-73
2022/01/28 08:40:43;;;;;;;41.17;7.20;;;;;;;6.70;42.23;101566.53;5057242;28;20056;-73
2022/01/28 08:43:09;;;;;;;30.65;5.78;;;;;;;6.43;42.50;101568.59;5067412;28;20040;-73
2022/01/28 08:45:36;;;;;;;32.83;5.30;;;;;;;7.30;40.71;101562.00;5071933;28;20064;-73
2022/01/28 08:48:03;;;;;;;38.92;5.57;;;;;;;7.50;40.17;101571.16;5071868;28;20132;-73
2022/01/28 08:50:29;;;;;;;43.97;6.32;;;;;;;7.15;40.89;101582.72;5066549;28;20547;-73
2022/01/28 08:52:56;;;;;;;36.67;6.03;;;;;;;7.64;40.03;101584.25;5051135;28;20051;-73
2022/01/28 08:55:23;;;;;;;37.10;5.65;;;;;;;7.40;40.67;101596.84;5052426;28;20068;-72
2022/01/28 08:57:50;;;;;;;37.50;5.95;;;;;;;6.90;41.26;101593.53;5050172;28;20114;-73
2022/01/28 09:00:18;;;;;;;39.75;6.50;;;;;;;6.96;41.38;101598.41;5051059;28;20140;-73
2022/01/28 09:02:45;;;;;;;30.65;5.50;;;;;;;7.00;41.03;101593.69;5051100;28;20063;-73
2022/01/28 09:05:11;;;;;;;45.88;5.10;;;;;;;7.05;41.28;101604.84;5052774;28;20051;-73
2022/01/28 09:07:38;;;;;;;42.65;5.70;;;;;;;7.02;41.04;101613.97;5052330;28;20041;-73
2022/01/28 09:10:12;;;;;;;29.35;5.10;;;;;;;7.02;41.33;101613.97;5051972;28;20123;-73
2022/01/28 09:12:49;;;;;;;33.03;4.43;;;;;;;7.23;40.56;101616.81;5052948;28;20064;-72
2022/01/28 09:15:16;;;;;;;22.98;4.30;;;;;;;6.90;41.43;101629.03;5050855;28;20068;-73
2022/01/28 09:17:54;;;;;;;35.40;5.97;;;;;;;7.33;40.49;101627.66;5066519;28;20147;-73
2022/01/28 09:20:26;;;;;;;;;;;;;;;7.49;40.03;101632.66;5070922;28;20044;-72
2022/01/28 09:22:52;;;;;;;35.28;4.55;;;;;;;7.89;39.28;101633.13;5069788;28;19920;-72
2022/01/28 09:25:19;;;;;;;40.42;4.75;;;;;;;7.92;39.18;101634.72;5057475;28;20064;-72
2022/01/28 09:27:45;;;;;;;31.63;6.13;;;;;;;7.61;39.44;101639.75;5058976;28;20053;-72
2022/01/28 09:30:12;;;;;;;40.33;6.40;;;;;;;7.75;39.10;101644.84;5060052;28;20396;-72
2022/01/28 09:32:39;;;;;;;29.00;5.47;;;;;;;7.52;39.61;101646.63;5071615;28;20068;-72
2022/01/28 09:35:06;;;;;;;33.22;5.45;;;;;;;7.57;39.35;101646.25;5055603;28;20048;-72
2022/01/28 09:37:34;;;;;;;39.83;6.00;;;;;;;7.05;40.50;101655.53;5051632;28;20220;-72
2022/01/28 09:40:01;;;;;;;44.42;6.20;;;;;;;6.94;40.37;101659.88;5051161;28;20080;-72
2022/01/28 09:42:31;;;;;;;30.80;5.03;;;;;;;7.69;39.07;101660.50;5058242;28;20159;-72
2022/01/28 09:44:59;;;;;;;29.25;5.13;;;;;;;6.89;40.76;101667.38;5064755;28;20072;-72
2022/01/28 09:47:25;;;;;;;35.67;5.78;;;;;;;8.08;38.41;101653.88;5051178;28;20041;-72
2022/01/28 09:49:51;;;;;;;33.63;5.35;;;;;;;7.26;39.54;101669.13;5053203;28;20444;-72
2022/01/28 09:52:19;;;;;;;34.22;4.95;;;;;;;7.62;39.52;101682.34;5070349;28;20049;-72
2022/01/28 09:54:46;;;;;;;37.33;6.40;;;;;;;8.28;38.04;101685.25;5068976;28;20044;-72
2022/01/28 09:57:18;;;;;;;27.33;4.93;;;;;;;8.76;37.11;101702.84;5069938;28;20041;-72
2022/01/28 09:59:45;;;;;;;29.70;4.80;;;;;;;9.53;35.62;101708.06;5054940;28;20048;-72
2022/01/28 10:02:13;;;;;;;39.53;5.93;;;;;;;10.04;34.65;101715.34;5051320;28;20048;-72
2022/01/28 10:04:39;;;;;;;37.38;5.55;;;;;;;10.01;34.14;101719.13;5028899;28;20057;-72
2022/01/28 10:07:16;;;;;;;33.25;4.78;;;;;;;10.06;34.20;101717.88;5029889;28;20486;-72
2022/01/28 10:10:00;;;;;;;27.60;4.88;;;;;;;9.77;34.93;101731.94;5029482;28;20049;-72
2022/01/28 10:12:38;;;;;;;40.45;6.18;;;;;;;10.13;34.51;101719.03;5031726;28;20065;-72
2022/01/28 10:15:17;;;;;;;38.70;5.38;;;;;;;10.07;34.31;101741.03;5030891;28;20379;-72
2022/01/28 10:17:51;;;;;;;31.70;5.50;;;;;;;10.45;33.80;101749.28;5031455;28;20077;-72
2022/01/28 10:20:23;;;;;;;26.17;4.35;;;;;;;10.30;34.03;101739.03;5030254;28;20080;-72
2022/01/28 10:22:57;;;;;;;31.90;4.53;;;;;;;10.07;34.12;101746.41;5030456;28;20049;-72
2022/01/28 10:25:32;;;;;;;30.95;5.05;;;;;;;10.24;34.08;101751.16;5032556;28;20041;-72
2022/01/28 10:28:08;;;;;;;33.05;5.50;;;;;;;11.08;32.80;101756.31;5033948;28;20490;-72
2022/01/28 10:30:42;;;;;;;37.83;5.80;;;;;;;10.00;34.29;101749.59;5034841;28;20064;-72
2022/01/28 10:33:16;;;;;;;33.67;6.22;;;;;;;9.95;34.19;101749.13;5034975;28;20049;-72
2022/01/28 10:35:54;;;;;;;29.27;5.00;;;;;;;10.22;34.21;101737.88;5032923;28;20049;-72
2022/01/28 10:38:35;;;;;;;33.70;5.32;;;;;;;10.42;33.83;101751.38;5014048;28;20137;-72
2022/01/28 10:41:09;;;;;;;31.50;4.83;;;;;;;9.31;35.40;101760.75;5014694;28;20073;-72
2022/01/28 10:43:48;;;;;;;36.13;5.38;;;;;;;9.29;35.65;101756.50;5015332;28;20072;-72
2022/01/28 10:46:33;;;;;;;37.97;6.15;;;;;;;9.11;35.75;101761.50;5014055;28;20053;-72
2022/01/28 10:49:03;;;;;;;33.65;5.78;;;;;;;9.46;35.41;101764.00;5014168;28;20058;-73
2022/01/28 10:52:03;;;;;;;29.13;5.50;;;;;;;8.60;36.79;101765.56;5014975;28;20050;-72
2022/01/28 10:54:29;;;;;;;35.53;4.75;;;;;;;9.59;35.57;101774.53;5014470;28;20070;-72
2022/01/28 10:57:01;;;;;;;30.50;5.22;;;;;;;9.38;35.62;101765.63;5022410;28;20073;-72
2022/01/28 10:59:31;;;;;;;31.88;5.32;;;;;;;9.74;35.33;101767.03;5046877;28;20494;-73
2022/01/28 11:01:58;;;;;;;33.33;5.00;;;;;;;9.25;35.91;101755.06;5033485;28;20069;-72
2022/01/28 11:04:26;;;;;;;31.88;5.22;;;;;;;9.06;36.36;101750.34;5061147;28;20044;-72
2022/01/28 11:06:55;;;;;;;30.85;5.07;;;;;;;9.78;34.96;101772.00;5072846;28;20048;-72
2022/01/28 11:09:22;;;;;;;22.17;4.75;;;;;;;10.44;34.23;101771.75;5072147;28;20086;-72
2022/01/28 11:11:50;;;;;;;25.13;4.80;;;;;;;10.24;33.85;101759.22;5057319;28;20044;-72
2022/01/28 11:14:18;;;;;;;34.40;5.55;;;;;;;10.62;33.89;101752.38;5064279;28;20044;-72
2022/01/28 11:16:45;;;;;;;29.98;4.18;;;;;;;9.78;34.92;101779.19;5059739;28;20048;-72
2022/01/28 11:19:18;;;;;;;20.42;3.75;;;;;;;10.81;33.14;101781.94;5073873;28;20120;-72
2022/01/28 11:21:56;;;;;;;27.50;4.47;;;;;;;10.06;34.50;101761.63;5062316;28;20462;-72
2022/01/28 11:24:39;;;;;;;25.83;4.07;;;;;;;9.88;34.94;101773.91;5059875;28;20455;-72
2022/01/28 11:27:17;;;;;;;26.42;4.35;;;;;;;10.70;33.43;101782.88;5057810;28;20478;-76
2022/01/28 11:29:44;;;;;;;20.33;4.10;;;;;;;10.89;33.09;101790.16;5067446;28;20049;-72
2022/01/28 11:32:17;;;;;;;23.95;4.45;;;;;;;11.10;32.79;101800.84;5062467;28;20041;-72
2022/01/28 11:35:05;;;;;;;25.67;4.78;;;;;;;11.41;32.52;101814.16;5072534;28;20041;-72
2022/01/28 11:37:33;;;;;;;14.45;3.63;;;;;;;10.95;32.69;101823.66;5073554;28;20096;-72
2022/01/28 11:40:11;;;;;;;22.17;4.43;;;;;;;10.49;33.73;101833.88;5073828;28;20154;-72
2022/01/28 11:42:38;;;;;;;29.85;4.80;;;;;;;9.37;35.45;101839.75;5073057;28;20148;-73
2022/01/28 11:45:10;;;;;;;29.50;4.75;;;;;;;9.12;35.79;101840.84;5072936;28;20055;-72
2022/01/28 11:47:52;;;;;;;34.88;4.75;;;;;;;9.01;36.31;101843.53;5072013;28;20060;-72
2022/01/28 11:50:22;;;;;;;19.58;3.65;;;;;;;9.55;35.53;101848.97;5073100;28;20044;-72
2022/01/28 11:52:51;;;;;;;33.08;4.25;;;;;;;9.17;36.35;101852.06;5073773;28;20053;-73
2022/01/28 11:55:18;;;;;;;24.45;4.05;;;;;;;8.84;36.92;101850.22;5072169;28;20075;-72
2022/01/28 11:57:55;;;;;;;23.77;4.57;;;;;;;8.77;37.02;101852.53;5074669;28;20045;-72
2022/01/28 12:00:24;;;;;;;35.00;4.20;;;;;;;8.73;37.21;101853.75;5072851;28;20119;-72
2022/01/28 12:02:52;;;;;;;26.15;4.38;;;;;;;9.08;36.76;101855.44;5073936;28;20412;-72
2022/01/28 12:05:31;;;;;;;29.48;5.82;;;;;;;9.20;36.60;101854.47;5073228;28;20435;-72
2022/01/28 12:08:04;;;;;;;31.10;4.78;;;;;;;9.18;36.75;101855.56;5053715;28;20072;-72
2022/01/28 12:10:33;;;;;;;31.77;4.65;;;;;;;8.98;37.18;101849.97;5043020;28;20509;-72
2022/01/28 12:13:06;;;;;;;37.92;4.95;;;;;;;8.72;37.88;101852.06;5070680;28;20066;-72
2022/01/28 12:16:00;;;;;;;23.13;3.70;;;;;;;9.49;36.35;101845.94;5073678;28;20052;-72
2022/01/28 12:18:47;;;;;;;21.23;3.67;;;;;;;10.67;34.51;101855.63;5046730;28;20044;-72
2022/01/28 12:21:20;;;;;;;20.05;3.03;;;;;;;10.34;34.42;101871.88;5054715;28;20045;-72
2022/01/28 12:23:47;;;;;;;29.40;4.20;;;;;;;10.71;34.26;101875.00;5053992;28;20088;-72
2022/01/28 12:26:17;;;;;;;27.83;4.28;;;;;;;11.63;32.60;101864.16;5053694;28;20049;-72
2022/01/28 12:28:46;;;;;;;24.73;4.45;;;;;;;11.67;32.16;101876.34;5052061;28;20044;-71
2022/01/28 12:31:18;;;;;;;22.20;3.78;;;;;;;11.36;32.44;101879.06;5054273;28;20045;-71
2022/01/28 12:33:51;;;;;;;24.23;3.70;;;;;;;10.82;33.42;101874.91;5056134;28;20070;-71
2022/01/28 12:36:22;;;;;;;19.50;3.25;;;;;;;9.73;34.96;101865.34;5053382;28;20474;-71
2022/01/28 12:39:06;;;;;;;25.10;3.80;;;;;;;9.49;35.74;101873.56;5063358;28;20068;-71
2022/01/28 12:41:48;;;;;;;21.73;4.03;;;;;;;9.44;35.99;101872.22;5056771;28;20090;-71
2022/01/28 12:44:15;;;;;;;26.60;3.40;;;;;;;9.32;36.07;101877.59;5072745;28;20044;-71
2022/01/28 12:46:51;;;;;;;21.80;3.90;;;;;;;9.34;36.38;101893.56;5073415;28;20050;-71
2022/01/28 12:49:23;;;;;;;23.52;4.38;;;;;;;9.06;36.68;101897.56;5071880;28;20090;-71